Etusivu
METAR-TAF:

METAR-TAF

Lentoasemat :

Växjö, Ruotsi

Leveyspiiri: 56-51N, Pituuspiiri: 014-50E, korkeus merenpinnasta: 199 m

Tämänhetkinen sää

Tämä raportti tehtiin 34 minuuttia sitten, kello 23.50 UTC
Tuuli 10 kn idästä/koillisesta, vaihdellen pohjoisen ja idän välillä
Lämpötila 14°C
Kosteus 63%
Ilmanpaine 1005 hPa
Näkyvyys 10 km tai enemmän
ei pilviä alle 1500 m:ssä eikä cumulonimbus-pilviä

METAR: ESMX 282350Z 07010KT 010V090 CAVOK 14/07 Q1005

Aika: 02:24 (00:24 UTC)

Sääennuste

Tämä raportti tehtiin 3 tuntia ja 54 minuuttia sitten, kello 20.30 UTC
Ennuste voimassa 28. päivästä klo 21 UTC - 29. päivään klo 01 UTC
Tuuli 10 kn idästä/koillisesta
Näkyvyys 10 km tai enemmän
ei pilviä alle 1500 m:ssä eikä cumulonimbus-pilviä

TAF: ESMX 282030Z 2821/2901 07010KT CAVOK

Säähavainnot ja -ennusteet yli 4000 lentoasemalta (METAR- ja TAF-raportit).

Käytössä olevat sääasemat on merkitty karttaan keltaisilla ja punaisilla pisteillä.

Aseta hiiri pisteen päälle nähdäksesi sääaseman nimen.

Klikkaa sitten nähdäksesi säähavainnot ja -ennusteet.

Kartan vaihtaminen: klikkaa mustalla rastilla varustettuja vihreitä pisteitä, niin voit zoomata sisään; viivalla varustettua vihreää pistettä, niin voit zoomata ulos tai vihreitä nuolia, niin pääset viereisille kartoille.


METAR-TAF: